createdAt,value
2022-09-06T00:00:34.512Z,99925.28
2022-09-06T00:03:03.890Z,99989.19
2022-09-06T00:05:33.769Z,100013.38
2022-09-06T00:08:03.301Z,100010.78
2022-09-06T00:10:32.585Z,100015.97
2022-09-06T00:13:04.191Z,99927.03
2022-09-06T00:15:33.247Z,100023.69
2022-09-06T00:18:02.568Z,99995.19
2022-09-06T00:20:32.102Z,100003.00
2022-09-06T00:23:01.583Z,99993.50
2022-09-06T00:25:30.471Z,100007.34
2022-09-06T00:28:00.097Z,99980.63
2022-09-06T00:30:31.311Z,99993.56
2022-09-06T00:33:00.119Z,99987.50
2022-09-06T00:35:29.613Z,100003.06
2022-09-06T00:37:59.159Z,100012.53
2022-09-06T00:40:29.644Z,99996.13
2022-09-06T00:42:58.841Z,100005.63
2022-09-06T00:45:30.696Z,99980.47
2022-09-06T00:48:00.318Z,100005.56
2022-09-06T00:50:29.525Z,99980.50
2022-09-06T00:52:58.133Z,100007.31
2022-09-06T00:55:26.757Z,100010.75
2022-09-06T00:57:56.661Z,100005.56
2022-09-06T01:00:25.200Z,99998.63
2022-09-06T01:02:55.574Z,99990.88
2022-09-06T01:05:27.202Z,99961.56
2022-09-06T01:08:03.560Z,99996.06
2022-09-06T01:10:56.534Z,99995.19
2022-09-06T01:13:34.476Z,99998.69
2022-09-06T01:16:12.183Z,99965.03
2022-09-06T01:18:57.264Z,99954.69
2022-09-06T01:21:29.191Z,100010.69
2022-09-06T01:24:40.414Z,100002.91
2022-09-06T01:27:34.959Z,100002.91
2022-09-06T01:30:06.398Z,100004.59
2022-09-06T01:32:40.953Z,100005.47
2022-09-06T01:35:16.306Z,100006.38
2022-09-06T01:37:44.941Z,99998.63
2022-09-06T01:40:13.576Z,100000.38
2022-09-06T01:42:44.393Z,99972.72
2022-09-06T01:45:16.600Z,100010.63
2022-09-06T01:47:55.835Z,100007.22
2022-09-06T01:50:45.505Z,100010.69
2022-09-06T01:53:23.920Z,99998.59
2022-09-06T01:55:58.533Z,100003.81
2022-09-06T01:58:57.000Z,99999.50
2022-09-06T02:01:31.141Z,100007.28
2022-09-06T02:04:03.475Z,99964.09
2022-09-06T02:06:34.484Z,99994.34
2022-09-06T02:09:05.939Z,100003.84
2022-09-06T02:11:39.549Z,100008.16
2022-09-06T02:14:13.465Z,99952.03
2022-09-06T02:16:46.781Z,100009.00
2022-09-06T02:19:17.971Z,100009.00
2022-09-06T02:21:47.801Z,100008.16
2022-09-06T02:24:19.868Z,100015.88
2022-09-06T02:26:49.291Z,99958.91
2022-09-06T02:29:19.583Z,100008.97
2022-09-06T02:31:51.668Z,100011.56
2022-09-06T02:34:21.462Z,100013.28
2022-09-06T02:36:50.268Z,99983.91
2022-09-06T02:39:18.890Z,100020.09
2022-09-06T02:41:48.277Z,100017.53
2022-09-06T02:44:18.619Z,100016.69
2022-09-06T02:46:47.292Z,100009.81
2022-09-06T02:49:16.013Z,99995.16
2022-09-06T02:51:44.693Z,100015.00
2022-09-06T02:54:13.820Z,100017.59
2022-09-06T02:56:42.581Z,100003.81
2022-09-06T02:59:11.147Z,100018.50
2022-09-06T03:01:41.205Z,100011.59
2022-09-06T03:04:09.894Z,100018.50
2022-09-06T03:06:38.769Z,100012.44
2022-09-06T03:09:07.470Z,100018.50
2022-09-06T03:11:36.059Z,100010.72
2022-09-06T03:14:04.999Z,100002.00
2022-09-06T03:16:33.738Z,100023.50
2022-09-06T03:19:04.159Z,100015.81
2022-09-06T03:21:34.023Z,99972.66
2022-09-06T03:24:02.910Z,100015.84
2022-09-06T03:26:31.592Z,100009.81
2022-09-06T03:29:00.246Z,100021.88
2022-09-06T03:31:28.842Z,100025.31
2022-09-06T03:33:57.506Z,100018.34
2022-09-06T03:38:56.302Z,100020.88
2022-09-06T03:41:24.934Z,100044.19
2022-09-06T03:43:53.537Z,100022.63
2022-09-06T03:46:22.169Z,100032.19
2022-09-06T03:48:51.287Z,100020.13
2022-09-06T03:51:20.261Z,100020.97
2022-09-06T03:53:50.298Z,100043.34
2022-09-06T03:56:19.179Z,100041.63
2022-09-06T03:58:47.904Z,100031.28
2022-09-06T04:01:16.611Z,100043.31
2022-09-06T04:03:45.524Z,100018.34
2022-09-06T04:06:14.114Z,100038.19
2022-09-06T04:08:42.852Z,100041.66
2022-09-06T04:11:12.865Z,100034.81
2022-09-06T04:13:41.807Z,99990.81
2022-09-06T04:16:10.530Z,100032.22
2022-09-06T04:18:39.332Z,100038.31
2022-09-06T04:21:08.212Z,100035.72
2022-09-06T04:23:40.088Z,100032.31
2022-09-06T04:26:08.960Z,100038.38
2022-09-06T04:28:39.154Z,100039.19
2022-09-06T04:31:07.755Z,100033.91
2022-09-06T04:33:38.421Z,100032.25
2022-09-06T04:36:09.727Z,100007.22
2022-09-06T04:38:40.107Z,100009.84
2022-09-06T04:41:09.454Z,100027.97
2022-09-06T04:43:49.231Z,100031.47
2022-09-06T04:46:22.292Z,100025.47
2022-09-06T04:48:52.048Z,100034.94
2022-09-06T04:51:21.054Z,100029.81
2022-09-06T04:53:49.902Z,100028.09
2022-09-06T04:56:20.268Z,100033.25
2022-09-06T04:58:50.891Z,100015.19
2022-09-06T05:01:20.643Z,100029.88
2022-09-06T05:03:49.376Z,100019.53
2022-09-06T05:06:23.994Z,99973.00
2022-09-06T05:08:52.624Z,100017.91
2022-09-06T05:11:21.305Z,100026.50
2022-09-06T05:13:51.542Z,100012.75
2022-09-06T05:16:20.273Z,100005.00
2022-09-06T05:18:48.999Z,100021.38
2022-09-06T05:21:19.813Z,100021.38
2022-09-06T05:23:48.422Z,100026.53
2022-09-06T05:26:17.029Z,100015.31
2022-09-06T05:28:45.634Z,100033.41
2022-09-06T05:31:27.246Z,99990.25
2022-09-06T05:33:56.764Z,99999.78
2022-09-06T05:36:26.676Z,99997.25
2022-09-06T05:38:56.374Z,100031.72
2022-09-06T05:41:26.169Z,100033.44
2022-09-06T05:43:54.850Z,100015.34
2022-09-06T05:46:24.856Z,99999.75
2022-09-06T05:48:54.624Z,100029.13
2022-09-06T05:51:23.400Z,100023.97
2022-09-06T05:53:52.020Z,100024.81
2022-09-06T05:56:22.701Z,100026.50
2022-09-06T05:58:51.269Z,100004.94
2022-09-06T06:01:21.121Z,100047.19
2022-09-06T06:03:55.424Z,100023.91
2022-09-06T06:06:25.014Z,100034.25
2022-09-06T06:08:53.649Z,100017.03
2022-09-06T06:11:22.525Z,100011.84
2022-09-06T06:13:52.042Z,99977.34
2022-09-06T06:16:23.943Z,100017.06
2022-09-06T06:19:13.256Z,99986.03
2022-09-06T06:21:43.898Z,100034.34
2022-09-06T06:24:12.492Z,100024.88
2022-09-06T06:26:41.238Z,100037.81
2022-09-06T06:29:09.893Z,100042.94
2022-09-06T06:31:39.849Z,100016.22
2022-09-06T06:34:10.254Z,100027.47
2022-09-06T06:36:39.406Z,100016.25
2022-09-06T06:39:10.143Z,100019.72
2022-09-06T06:41:38.881Z,100026.59
2022-09-06T06:44:27.460Z,100028.31
2022-09-06T06:46:58.740Z,100015.38
2022-09-06T06:49:28.883Z,100004.16
2022-09-06T06:51:57.600Z,100024.00
2022-09-06T06:54:27.326Z,100033.50
2022-09-06T06:56:55.939Z,100019.69
2022-09-06T06:59:24.632Z,100017.09
2022-09-06T07:01:53.644Z,100004.16
2022-09-06T07:04:22.340Z,100033.50
2022-09-06T07:12:31.360Z,100012.78
2022-09-06T07:15:00.024Z,100008.44
2022-09-06T07:17:28.797Z,100012.72
2022-09-06T07:20:14.043Z,100018.78
2022-09-06T07:22:44.884Z,100020.50
2022-09-06T07:25:21.249Z,100013.53
2022-09-06T07:27:50.735Z,100013.53
2022-09-06T07:30:20.747Z,100000.63
2022-09-06T07:32:49.467Z,99984.22
2022-09-06T07:35:21.112Z,99998.81
2022-09-06T07:37:58.538Z,100017.81
2022-09-06T07:40:28.192Z,100011.75
2022-09-06T07:42:59.010Z,100010.94
2022-09-06T07:45:28.003Z,100012.63
2022-09-06T07:47:59.253Z,100005.63
2022-09-06T07:53:23.056Z,100007.41
2022-09-06T07:55:57.857Z,100006.69
2022-09-06T07:58:26.757Z,100005.75
2022-09-06T08:00:55.419Z,99992.03
2022-09-06T08:03:24.156Z,100014.47
2022-09-06T08:11:28.596Z,100001.53
2022-09-06T08:13:58.319Z,99994.47
2022-09-06T08:16:29.145Z,99989.13
2022-09-06T08:18:58.908Z,99988.97
2022-09-06T08:21:29.689Z,99959.56
2022-09-06T08:24:00.875Z,99990.47
2022-09-06T08:26:30.907Z,99971.56
2022-09-06T08:29:01.383Z,99994.41
2022-09-06T08:31:31.744Z,99984.75
2022-09-06T08:34:01.251Z,99982.16
2022-09-06T08:36:30.949Z,99966.72
2022-09-06T08:39:01.773Z,99952.81
2022-09-06T08:41:33.704Z,99951.03
2022-09-06T08:47:00.319Z,99952.84
2022-09-06T08:49:29.335Z,99970.13
2022-09-06T08:52:24.226Z,99971.88
2022-09-06T08:55:02.558Z,99960.47
2022-09-06T08:57:40.448Z,99960.38
2022-09-06T09:00:12.859Z,99964.75
2022-09-06T09:02:47.209Z,99921.59
2022-09-06T09:05:21.850Z,99953.41
2022-09-06T09:07:52.154Z,99955.69
2022-09-06T09:10:27.858Z,99951.16
2022-09-06T09:12:56.726Z,99960.94
2022-09-06T09:15:25.760Z,99960.34
2022-09-06T09:17:55.151Z,99956.94
2022-09-06T09:20:24.230Z,99931.09
2022-09-06T09:22:53.016Z,99927.59
2022-09-06T09:25:25.258Z,99957.72
2022-09-06T09:27:58.221Z,99951.66
2022-09-06T09:33:24.955Z,99912.25
2022-09-06T09:35:54.126Z,99941.50
2022-09-06T09:38:25.573Z,99886.53
2022-09-06T09:40:59.588Z,99952.03
2022-09-06T09:43:31.368Z,99963.22
2022-09-06T09:46:30.466Z,99954.59
2022-09-06T09:49:06.375Z,99968.41
2022-09-06T09:51:36.109Z,99959.00
2022-09-06T09:54:06.419Z,99958.84
2022-09-06T09:56:40.766Z,99951.88
2022-09-06T09:59:22.060Z,99958.66
2022-09-06T10:01:51.257Z,99962.84
2022-09-06T10:07:12.159Z,99923.25
2022-09-06T10:09:44.280Z,99954.31
2022-09-06T10:12:18.612Z,99958.66
2022-09-06T10:14:50.154Z,99934.56
2022-09-06T10:17:23.868Z,99924.34
2022-09-06T10:19:52.464Z,99933.78
2022-09-06T10:22:30.541Z,99943.25
2022-09-06T10:25:40.503Z,99882.97
2022-09-06T10:28:31.752Z,99955.06
2022-09-06T10:31:10.850Z,99933.53
2022-09-06T10:33:46.184Z,99937.78
2022-09-06T10:36:16.827Z,99950.75
2022-09-06T10:38:55.071Z,99922.53
2022-09-06T10:41:40.858Z,99913.97
2022-09-06T10:44:29.100Z,99946.50
2022-09-06T10:47:06.078Z,99944.75
2022-09-06T10:49:35.294Z,99941.31
2022-09-06T10:52:05.429Z,99949.13
2022-09-06T10:54:36.024Z,99943.88
2022-09-06T11:00:03.755Z,99942.97
2022-09-06T11:02:36.241Z,99942.72
2022-09-06T11:10:51.355Z,99924.44
2022-09-06T11:13:21.312Z,99926.22
2022-09-06T11:15:56.185Z,99920.94
2022-09-06T11:18:29.507Z,99926.34
2022-09-06T11:21:10.351Z,99923.75
2022-09-06T11:23:48.365Z,99932.47
2022-09-06T11:26:34.756Z,99935.13
2022-09-06T11:29:06.340Z,99925.41
2022-09-06T11:34:41.334Z,99896.75
2022-09-06T11:37:10.909Z,99918.09
2022-09-06T11:43:09.151Z,99918.25
2022-09-06T11:45:43.999Z,99905.09
2022-09-06T11:48:35.497Z,99904.84
2022-09-06T11:51:07.854Z,99911.16
2022-09-06T11:53:59.375Z,99899.72
2022-09-06T11:56:32.121Z,99897.94
2022-09-06T11:59:04.543Z,99900.56
2022-09-06T12:01:39.088Z,99898.00
2022-09-06T12:04:10.297Z,99899.03
2022-09-06T12:06:41.632Z,99896.44
2022-09-06T12:09:30.261Z,99899.06
2022-09-06T12:11:59.904Z,99900.84
2022-09-06T12:14:37.180Z,99888.84
2022-09-06T12:17:26.858Z,99898.41
2022-09-06T12:20:07.071Z,99870.94
2022-09-06T12:22:59.447Z,99907.22
2022-09-06T12:25:54.933Z,99896.06
2022-09-06T12:28:36.528Z,99891.81
2022-09-06T12:31:30.500Z,99903.13
2022-09-06T12:34:00.073Z,99867.94
2022-09-06T12:36:32.834Z,99876.56
2022-09-06T12:39:03.201Z,99907.53
2022-09-06T12:41:33.638Z,99902.41
2022-09-06T12:44:03.930Z,99901.59
2022-09-06T12:46:34.674Z,99850.13
2022-09-06T12:49:08.489Z,99890.66
2022-09-06T12:51:40.626Z,99891.59
2022-09-06T12:54:21.973Z,99915.84
2022-09-06T12:56:51.192Z,99865.94
2022-09-06T12:59:24.624Z,99895.22
2022-09-06T13:01:58.464Z,99904.50
2022-09-06T13:04:34.099Z,99902.59
2022-09-06T13:07:05.144Z,99909.53
2022-09-06T13:09:34.215Z,99902.72
2022-09-06T13:12:08.854Z,99893.94
2022-09-06T13:14:37.671Z,99890.25
2022-09-06T13:17:07.430Z,99792.88
2022-09-06T13:19:37.842Z,99877.91
2022-09-06T13:22:11.390Z,99858.03
2022-09-06T13:24:51.369Z,99846.78
2022-09-06T13:27:35.922Z,99870.94
2022-09-06T13:30:10.272Z,99828.94
2022-09-06T13:32:49.435Z,99882.22
2022-09-06T13:35:24.226Z,99877.09
2022-09-06T13:37:55.471Z,99841.13
2022-09-06T13:43:45.163Z,99872.31
2022-09-06T13:46:17.390Z,99875.00
2022-09-06T13:48:46.120Z,99870.72
2022-09-06T13:51:15.267Z,99879.38
2022-09-06T13:53:45.405Z,99887.13
2022-09-06T13:56:13.989Z,99797.59
2022-09-06T13:58:42.956Z,99828.53
2022-09-06T14:01:11.937Z,99861.16
2022-09-06T14:03:43.115Z,99874.81
2022-09-06T14:06:12.699Z,99881.75
2022-09-06T14:09:05.692Z,99856.72
2022-09-06T14:11:31.407Z,99875.63
2022-09-06T14:14:00.044Z,99827.50
2022-09-06T14:16:29.120Z,99774.97
2022-09-06T14:18:58.273Z,99801.66
2022-09-06T14:21:27.076Z,99832.56
2022-09-06T14:24:04.359Z,99835.03
2022-09-06T14:26:35.123Z,99868.59
2022-09-06T14:29:03.997Z,99786.03
2022-09-06T14:31:33.689Z,99865.13
2022-09-06T14:34:04.681Z,99863.44
2022-09-06T14:36:34.934Z,99870.28
2022-09-06T14:39:03.882Z,99785.91
2022-09-06T14:41:32.617Z,99868.38
2022-09-06T14:44:04.272Z,99864.03
2022-09-06T14:46:33.191Z,99828.72
2022-09-06T14:49:03.024Z,99856.25
2022-09-06T14:51:31.939Z,99853.00
2022-09-06T14:54:04.455Z,99822.91
2022-09-06T14:56:33.255Z,99771.34
2022-09-06T14:59:08.887Z,99802.41
2022-09-06T15:01:38.793Z,99866.03
2022-09-06T15:04:09.447Z,99755.94
2022-09-06T15:06:40.451Z,99861.72
2022-09-06T15:09:11.616Z,99836.78
2022-09-06T15:11:43.586Z,99841.88
2022-09-06T15:14:18.561Z,99852.22
2022-09-06T15:16:52.061Z,99802.44
2022-09-06T15:19:24.543Z,99828.31
2022-09-06T15:21:55.489Z,99847.28
2022-09-06T15:24:26.259Z,99740.75
2022-09-06T15:26:56.460Z,99853.44
2022-09-06T15:29:29.122Z,99859.53
2022-09-06T15:32:02.246Z,99850.09
2022-09-06T15:34:33.709Z,99851.84
2022-09-06T15:37:02.618Z,99843.25
2022-09-06T15:39:31.445Z,99853.56
2022-09-06T15:42:01.783Z,99783.06
2022-09-06T15:44:33.300Z,99808.03
2022-09-06T15:47:02.106Z,99790.00
2022-09-06T15:49:32.327Z,99808.09
2022-09-06T15:52:03.175Z,99853.66
2022-09-06T15:54:45.986Z,99814.16
2022-09-06T15:57:16.663Z,99862.31
2022-09-06T15:59:47.544Z,99861.47
2022-09-06T16:02:16.418Z,99864.94
2022-09-06T16:04:45.707Z,99836.56
2022-09-06T16:07:18.129Z,99825.34
2022-09-06T16:09:52.444Z,99821.94
2022-09-06T16:12:22.555Z,99801.25
2022-09-06T16:14:52.975Z,99755.66
2022-09-06T16:17:22.281Z,99836.63
2022-09-06T16:19:51.096Z,99874.47
2022-09-06T16:22:20.189Z,99871.91
2022-09-06T16:24:48.939Z,99827.19
2022-09-06T16:27:17.706Z,99876.28
2022-09-06T16:29:46.812Z,99866.84
2022-09-06T16:32:22.103Z,99846.19
2022-09-06T16:34:51.050Z,99857.41
2022-09-06T16:37:19.879Z,99849.69
2022-09-06T16:40:04.534Z,99887.63
2022-09-06T16:42:36.923Z,99796.38
2022-09-06T16:45:07.725Z,99869.59
2022-09-06T16:47:39.105Z,99878.22
2022-09-06T16:50:08.511Z,99873.91
2022-09-06T16:52:37.356Z,99871.34
2022-09-06T16:55:07.083Z,99831.75
2022-09-06T16:57:35.855Z,99864.47
2022-09-06T17:00:06.950Z,99880.84
2022-09-06T17:02:42.690Z,99861.91
2022-09-06T17:05:17.604Z,99770.59
2022-09-06T17:07:48.066Z,99872.22
2022-09-06T17:10:18.085Z,99864.50
2022-09-06T17:12:47.629Z,99754.25
2022-09-06T17:15:17.782Z,99875.69
2022-09-06T17:17:48.308Z,99841.22
2022-09-06T17:20:20.747Z,99867.94
2022-09-06T17:22:51.697Z,99861.91
2022-09-06T17:25:20.582Z,99806.75
2022-09-06T17:27:49.777Z,99875.69
2022-09-06T17:30:20.194Z,99815.38
2022-09-06T17:32:50.484Z,99864.47
2022-09-06T17:35:20.090Z,99839.50
2022-09-06T17:37:48.881Z,99868.75
2022-09-06T17:40:17.910Z,99833.47
2022-09-06T17:42:46.811Z,99864.47
2022-09-06T17:45:16.684Z,99841.25
2022-09-06T17:47:51.542Z,99870.50
2022-09-06T17:50:24.796Z,99855.03
2022-09-06T17:52:53.784Z,99867.06
2022-09-06T17:55:22.932Z,99872.25
2022-09-06T17:57:51.971Z,99859.31
2022-09-06T18:00:20.691Z,99869.66
2022-09-06T18:02:49.568Z,99861.03
2022-09-06T18:05:18.783Z,99829.19
2022-09-06T18:08:02.417Z,99863.63
2022-09-06T18:10:44.877Z,99864.50
2022-09-06T18:13:13.907Z,99825.72
2022-09-06T18:15:44.291Z,99845.53
2022-09-06T18:18:17.009Z,99854.16
2022-09-06T18:20:53.661Z,99813.69
2022-09-06T18:23:23.794Z,99783.53
2022-09-06T18:25:57.747Z,99839.50
2022-09-06T18:28:30.413Z,99842.97
2022-09-06T18:31:00.304Z,99856.75
2022-09-06T18:33:29.658Z,99858.50
2022-09-06T18:35:58.292Z,99852.44
2022-09-06T18:38:28.914Z,99856.75
2022-09-06T18:40:59.304Z,99849.00
2022-09-06T18:43:30.912Z,99805.94
2022-09-06T18:46:03.182Z,99848.13
2022-09-06T18:48:53.210Z,99809.38
2022-09-06T18:51:25.503Z,99831.75
2022-09-06T18:53:59.809Z,99839.53
2022-09-06T18:56:29.771Z,99824.88
2022-09-06T18:58:59.973Z,99737.91
2022-09-06T19:01:30.829Z,99844.72
2022-09-06T19:04:00.401Z,99836.94
2022-09-06T19:06:31.100Z,99841.25
2022-09-06T19:09:02.094Z,99767.16
2022-09-06T19:11:30.875Z,99827.47
2022-09-06T19:13:59.791Z,99824.88
2022-09-06T19:16:29.824Z,99751.69
2022-09-06T19:19:03.162Z,99833.50
2022-09-06T19:21:32.058Z,99812.84
2022-09-06T19:24:09.332Z,99782.69
2022-09-06T19:26:39.506Z,99814.53
2022-09-06T19:29:10.254Z,99829.19
2022-09-06T19:31:39.826Z,99766.31
2022-09-06T19:34:08.859Z,99823.16
2022-09-06T19:36:37.850Z,99817.16
2022-09-06T19:39:09.751Z,99800.78
2022-09-06T19:41:39.849Z,99826.63
2022-09-06T19:44:09.453Z,99774.06
2022-09-06T19:46:39.469Z,99821.44
2022-09-06T19:49:10.513Z,99825.75
2022-09-06T19:51:39.895Z,99817.13
2022-09-06T19:54:09.973Z,99812.81
2022-09-06T19:56:38.633Z,99817.13
2022-09-06T19:59:10.189Z,99811.94
2022-09-06T20:01:40.570Z,99817.13
2022-09-06T20:04:10.868Z,99749.91
2022-09-06T20:06:39.583Z,99816.25
2022-09-06T20:09:11.054Z,99807.66
2022-09-06T20:11:42.367Z,99821.44
2022-09-06T20:14:11.071Z,99824.00
2022-09-06T20:16:42.066Z,99793.84
2022-09-06T20:19:12.567Z,99811.09
2022-09-06T20:21:41.238Z,99810.22
2022-09-06T20:24:11.304Z,99780.06
2022-09-06T20:26:40.586Z,99814.53
2022-09-06T20:29:09.295Z,99780.03
2022-09-06T20:31:38.673Z,99808.47
2022-09-06T20:34:08.060Z,99792.94
2022-09-06T20:36:37.196Z,99817.09
2022-09-06T20:39:06.001Z,99809.34
2022-09-06T20:41:37.614Z,99804.19
2022-09-06T20:44:06.218Z,99772.28
2022-09-06T20:46:36.230Z,99805.00
2022-09-06T20:49:06.750Z,99797.25
2022-09-06T20:51:36.635Z,99753.31
2022-09-06T20:54:15.536Z,99799.84
2022-09-06T20:56:45.615Z,99757.66
2022-09-06T20:59:14.837Z,99777.47
2022-09-06T21:01:46.276Z,99769.72
2022-09-06T21:04:16.769Z,99790.38
2022-09-06T21:06:46.014Z,99786.94
2022-09-06T21:09:15.944Z,99761.97
2022-09-06T21:11:46.113Z,99771.41
2022-09-06T21:14:15.093Z,99787.81
2022-09-06T21:16:43.832Z,99784.34
2022-09-06T21:19:12.946Z,99683.53
2022-09-06T21:21:41.732Z,99775.72
2022-09-06T21:24:11.250Z,99736.09
2022-09-06T21:26:41.077Z,99745.56
2022-09-06T21:29:11.643Z,99764.53
2022-09-06T21:31:40.547Z,99745.56
2022-09-06T21:34:16.867Z,99763.66
2022-09-06T21:36:46.455Z,99773.13
2022-09-06T21:39:16.251Z,99736.94
2022-09-06T21:41:45.934Z,99764.50
2022-09-06T21:44:16.055Z,99761.91
2022-09-06T21:46:47.005Z,99721.34
2022-09-06T21:49:15.676Z,99763.63
2022-09-06T21:51:44.654Z,99756.72
2022-09-06T21:54:13.255Z,99757.59
2022-09-06T21:56:42.187Z,99755.84
2022-09-06T21:59:11.052Z,99729.97
2022-09-06T22:01:44.001Z,99748.91
2022-09-06T22:04:14.605Z,99717.03
2022-09-06T22:06:43.162Z,99749.78
2022-09-06T22:09:13.061Z,99748.88
2022-09-06T22:11:43.278Z,99747.19
2022-09-06T22:14:13.949Z,99747.16
2022-09-06T22:16:44.082Z,99742.88
2022-09-06T22:19:13.285Z,99748.00
2022-09-06T22:21:42.111Z,99741.16
2022-09-06T22:24:12.276Z,99741.16
2022-09-06T22:26:41.902Z,99723.94
2022-09-06T22:29:12.297Z,99738.56
2022-09-06T22:31:41.426Z,99737.69
2022-09-06T22:34:11.934Z,99730.81
2022-09-06T22:36:40.784Z,99735.09
2022-09-06T22:39:09.826Z,99740.22
2022-09-06T22:41:38.559Z,99739.38
2022-09-06T22:44:07.381Z,99712.66
2022-09-06T22:46:36.074Z,99726.47
2022-09-06T22:49:05.595Z,99728.19
2022-09-06T22:51:35.604Z,99717.84
2022-09-06T22:54:04.779Z,99644.59
2022-09-06T22:56:35.878Z,99704.03
2022-09-06T22:59:06.652Z,99722.97
2022-09-06T23:01:38.941Z,99718.63
2022-09-06T23:04:07.953Z,99722.06
2022-09-06T23:06:38.279Z,99735.84
2022-09-06T23:09:06.829Z,99723.78
2022-09-06T23:11:35.406Z,99726.38
2022-09-06T23:14:05.093Z,99713.44
2022-09-06T23:16:33.779Z,99700.50
2022-09-06T23:19:02.419Z,99728.91
2022-09-06T23:21:30.963Z,99715.16
2022-09-06T23:24:00.949Z,99721.16
2022-09-06T23:26:31.215Z,99718.56
2022-09-06T23:29:00.268Z,99718.56
2022-09-06T23:31:31.656Z,99716.84
2022-09-06T23:34:01.822Z,99713.41
2022-09-06T23:36:30.541Z,99695.28
2022-09-06T23:39:01.932Z,99709.97
2022-09-06T23:41:30.583Z,99707.38
2022-09-06T23:43:59.172Z,99703.97
2022-09-06T23:46:27.826Z,99709.97
2022-09-06T23:48:56.422Z,99703.06
2022-09-06T23:51:25.136Z,99689.31
2022-09-06T23:53:53.759Z,99692.78
2022-09-06T23:56:23.757Z,99694.47
2022-09-06T23:58:52.517Z,99704.72
